createdAt,value
2023-03-29T00:02:07.904Z,2.60
2023-03-29T00:04:35.422Z,2.60
2023-03-29T00:07:04.640Z,2.60
2023-03-29T00:09:33.487Z,2.50
2023-03-29T00:12:01.588Z,2.50
2023-03-29T00:14:30.949Z,2.40
2023-03-29T00:16:58.677Z,2.30
2023-03-29T00:19:25.982Z,2.30
2023-03-29T00:21:52.954Z,2.20
2023-03-29T00:24:21.222Z,2.20
2023-03-29T00:26:48.545Z,2.10
2023-03-29T00:29:15.687Z,2.10
2023-03-29T00:31:44.579Z,2.10
2023-03-29T00:34:11.750Z,2.10
2023-03-29T00:36:40.637Z,2.00
2023-03-29T00:39:07.646Z,2.00
2023-03-29T00:41:34.623Z,1.90
2023-03-29T00:44:03.979Z,1.90
2023-03-29T00:46:32.122Z,1.90
2023-03-29T00:49:07.332Z,1.90
2023-03-29T00:51:37.468Z,1.80
2023-03-29T00:54:09.820Z,1.80
2023-03-29T00:56:40.553Z,1.80
2023-03-29T00:59:13.520Z,1.80
2023-03-29T01:01:44.143Z,1.80
2023-03-29T01:04:37.378Z,1.70
2023-03-29T01:07:18.084Z,1.80
2023-03-29T01:09:51.965Z,1.80
2023-03-29T01:12:28.114Z,1.70
2023-03-29T01:14:59.894Z,1.70
2023-03-29T01:17:26.873Z,1.80
2023-03-29T01:20:13.793Z,1.70
2023-03-29T01:22:51.455Z,1.70
2023-03-29T01:25:40.541Z,1.70
2023-03-29T01:28:18.015Z,1.70
2023-03-29T01:31:02.006Z,1.60
2023-03-29T01:33:35.776Z,1.60
2023-03-29T01:36:11.815Z,1.50
2023-03-29T01:39:13.768Z,1.50
2023-03-29T01:42:14.775Z,1.40
2023-03-29T01:45:25.251Z,1.20
2023-03-29T01:48:06.586Z,1.10
2023-03-29T01:50:56.771Z,1.10
2023-03-29T01:53:27.255Z,1.00
2023-03-29T01:55:57.095Z,0.80
2023-03-29T01:58:28.881Z,0.80
2023-03-29T02:00:55.892Z,0.80
2023-03-29T02:03:28.269Z,0.80
2023-03-29T02:05:56.703Z,0.90
2023-03-29T02:08:24.918Z,0.80
2023-03-29T02:10:52.474Z,0.80
2023-03-29T02:13:20.235Z,0.80
2023-03-29T02:15:48.474Z,0.80
2023-03-29T02:18:18.662Z,0.70
2023-03-29T02:20:49.238Z,0.70
2023-03-29T02:23:21.318Z,0.70
2023-03-29T02:25:50.771Z,0.80
2023-03-29T02:28:17.770Z,0.70
2023-03-29T02:30:57.830Z,0.70
2023-03-29T02:33:47.857Z,0.80
2023-03-29T02:36:40.958Z,0.70
2023-03-29T02:39:13.771Z,0.70
2023-03-29T02:41:43.368Z,0.70
2023-03-29T02:44:18.417Z,0.80
2023-03-29T02:46:49.042Z,0.80
2023-03-29T02:49:16.477Z,0.70
2023-03-29T02:51:45.296Z,0.70
2023-03-29T02:54:19.560Z,0.60
2023-03-29T02:56:54.953Z,0.60
2023-03-29T02:59:24.872Z,0.60
2023-03-29T03:01:52.753Z,0.50
2023-03-29T03:04:22.994Z,0.50
2023-03-29T03:06:50.125Z,0.50
2023-03-29T03:09:17.889Z,0.40
2023-03-29T03:11:44.854Z,0.30
2023-03-29T03:14:11.769Z,0.30
2023-03-29T03:16:38.967Z,0.20
2023-03-29T03:19:07.032Z,0.20
2023-03-29T03:21:35.311Z,0.10
2023-03-29T03:24:02.221Z,0.00
2023-03-29T03:26:30.188Z,0.00
2023-03-29T03:28:58.356Z,0.10
2023-03-29T03:31:25.440Z,0.20
2023-03-29T03:33:52.983Z,0.30
2023-03-29T03:36:26.028Z,0.30
2023-03-29T03:38:53.350Z,0.20
2023-03-29T03:41:20.242Z,0.10
2023-03-29T03:43:49.071Z,0.10
2023-03-29T03:46:17.340Z,0.00
2023-03-29T03:48:46.076Z,-0.10
2023-03-29T03:51:13.457Z,-0.20
2023-03-29T03:53:40.426Z,-0.20
2023-03-29T03:56:09.243Z,-0.30
2023-03-29T03:58:37.564Z,-0.40
2023-03-29T04:01:06.091Z,-0.40
2023-03-29T04:03:33.125Z,-0.40
2023-03-29T04:06:01.802Z,-0.40
2023-03-29T04:08:28.747Z,-0.50
2023-03-29T04:10:57.626Z,-0.50
2023-03-29T04:13:26.167Z,-0.50
2023-03-29T04:15:58.794Z,-0.60
2023-03-29T04:18:27.715Z,-0.70
2023-03-29T04:20:54.781Z,-0.70
2023-03-29T04:23:22.083Z,-0.70
2023-03-29T04:25:48.953Z,-0.70
2023-03-29T04:28:16.289Z,-0.70
2023-03-29T04:30:43.197Z,-0.70
2023-03-29T04:33:10.553Z,-0.70
2023-03-29T04:35:37.912Z,-0.70
2023-03-29T04:38:04.812Z,-0.70
2023-03-29T04:40:31.749Z,-0.60
2023-03-29T04:43:00.158Z,-0.50
2023-03-29T04:45:27.443Z,-0.50
2023-03-29T04:47:59.643Z,-0.50
2023-03-29T04:50:27.140Z,-0.40
2023-03-29T04:52:54.046Z,-0.30
2023-03-29T04:55:20.940Z,-0.30
2023-03-29T04:57:50.314Z,-0.10
2023-03-29T05:00:17.698Z,0.00
2023-03-29T05:02:45.359Z,0.20
2023-03-29T05:05:12.846Z,0.30
2023-03-29T05:07:40.306Z,0.50
2023-03-29T05:10:08.479Z,0.80
2023-03-29T05:12:35.423Z,1.00
2023-03-29T05:15:02.400Z,1.20
2023-03-29T05:17:29.399Z,1.20
2023-03-29T05:19:56.320Z,1.20
2023-03-29T05:22:23.586Z,1.20
2023-03-29T05:24:51.717Z,1.30
2023-03-29T05:27:19.028Z,1.30
2023-03-29T05:29:46.673Z,1.40
2023-03-29T05:32:13.755Z,1.60
2023-03-29T05:34:41.181Z,1.70
2023-03-29T05:37:08.160Z,1.90
2023-03-29T05:39:37.579Z,2.10
2023-03-29T05:42:05.018Z,2.20
2023-03-29T05:44:32.230Z,2.60
2023-03-29T05:46:59.195Z,2.90
2023-03-29T05:49:27.194Z,3.10
2023-03-29T05:51:57.078Z,3.30
2023-03-29T05:54:24.876Z,3.40
2023-03-29T05:56:51.987Z,3.50
2023-03-29T05:59:19.824Z,3.60
2023-03-29T06:01:49.507Z,3.70
2023-03-29T06:04:19.235Z,3.90
2023-03-29T06:06:46.534Z,3.90
2023-03-29T06:09:13.483Z,3.90
2023-03-29T06:11:40.928Z,3.90
2023-03-29T06:14:07.905Z,4.00
2023-03-29T06:16:35.106Z,3.90
2023-03-29T06:19:02.061Z,4.00
2023-03-29T06:21:29.031Z,4.00
2023-03-29T06:23:55.952Z,4.00
2023-03-29T06:26:23.093Z,4.10
2023-03-29T06:28:52.063Z,4.30
2023-03-29T06:31:20.032Z,4.40
2023-03-29T06:33:47.345Z,4.50
2023-03-29T06:36:16.284Z,4.60
2023-03-29T06:38:46.008Z,4.70
2023-03-29T06:41:12.995Z,4.90
2023-03-29T06:43:40.038Z,5.00
2023-03-29T06:46:12.328Z,5.10
2023-03-29T06:48:41.032Z,5.20
2023-03-29T06:51:08.729Z,5.30
2023-03-29T06:53:36.772Z,5.30
2023-03-29T06:56:09.177Z,5.30
2023-03-29T06:58:36.628Z,5.30
2023-03-29T07:01:04.865Z,5.40
2023-03-29T07:03:35.017Z,5.50
2023-03-29T07:06:09.752Z,5.50
2023-03-29T07:08:43.826Z,5.60
2023-03-29T07:11:13.264Z,5.80
2023-03-29T07:13:42.698Z,5.90
2023-03-29T07:16:12.972Z,6.00
2023-03-29T07:18:44.180Z,6.20
2023-03-29T07:21:13.134Z,6.30
2023-03-29T07:23:40.883Z,6.50
2023-03-29T07:26:08.216Z,6.80
2023-03-29T07:28:37.579Z,7.00
2023-03-29T07:31:06.905Z,7.10
2023-03-29T07:33:34.627Z,7.20
2023-03-29T07:36:02.153Z,7.30
2023-03-29T07:38:30.080Z,7.40
2023-03-29T07:40:58.157Z,7.50
2023-03-29T07:43:25.317Z,7.70
2023-03-29T07:45:52.870Z,7.90
2023-03-29T07:48:20.318Z,8.00
2023-03-29T07:50:47.246Z,8.00
2023-03-29T07:53:14.148Z,8.10
2023-03-29T07:55:47.743Z,8.30
2023-03-29T07:58:14.897Z,8.50
2023-03-29T08:00:43.621Z,8.70
2023-03-29T08:03:12.530Z,9.00
2023-03-29T08:05:41.664Z,9.60
2023-03-29T08:08:09.896Z,9.80
2023-03-29T08:10:39.198Z,9.80
2023-03-29T08:13:09.265Z,9.90
2023-03-29T08:15:39.201Z,10.30
2023-03-29T08:18:07.798Z,10.50
2023-03-29T08:20:35.067Z,10.70
2023-03-29T08:23:01.989Z,11.00
2023-03-29T08:25:28.909Z,11.30
2023-03-29T08:27:55.948Z,11.40
2023-03-29T08:30:22.854Z,11.60
2023-03-29T08:32:52.885Z,11.80
2023-03-29T08:35:20.869Z,12.10
2023-03-29T08:37:47.718Z,12.10
2023-03-29T08:40:24.693Z,12.10
2023-03-29T08:43:29.157Z,12.10
2023-03-29T08:46:08.143Z,12.70
2023-03-29T08:48:42.490Z,13.10
2023-03-29T08:51:25.812Z,13.40
2023-03-29T08:53:58.470Z,13.70
2023-03-29T08:56:29.898Z,13.70
2023-03-29T08:58:58.820Z,13.30
2023-03-29T09:01:31.962Z,12.90
2023-03-29T09:04:09.182Z,12.70
2023-03-29T09:06:38.930Z,12.60
2023-03-29T09:09:15.855Z,12.80
2023-03-29T09:12:09.501Z,13.40
2023-03-29T09:15:08.618Z,13.80
2023-03-29T09:18:06.423Z,14.10
2023-03-29T09:20:46.167Z,14.40
2023-03-29T09:23:16.035Z,14.40
2023-03-29T09:25:54.284Z,14.70
2023-03-29T09:28:45.798Z,14.90
2023-03-29T09:31:18.954Z,15.30
2023-03-29T09:34:10.534Z,15.10
2023-03-29T09:36:43.327Z,15.00
2023-03-29T09:39:13.350Z,14.80
2023-03-29T09:41:55.990Z,14.50
2023-03-29T09:44:31.324Z,14.50
2023-03-29T09:47:08.627Z,13.80
2023-03-29T09:49:41.780Z,13.90
2023-03-29T09:52:13.854Z,14.20
2023-03-29T09:54:41.262Z,14.30
2023-03-29T09:57:13.388Z,13.90
2023-03-29T09:59:40.538Z,14.30
2023-03-29T10:02:10.308Z,14.60
2023-03-29T10:04:38.624Z,14.70
2023-03-29T10:07:16.219Z,14.80
2023-03-29T10:09:46.141Z,14.70
2023-03-29T10:12:14.151Z,14.60
2023-03-29T10:14:48.247Z,14.30
2023-03-29T10:17:25.111Z,14.00
2023-03-29T10:19:53.287Z,14.00
2023-03-29T10:22:24.786Z,13.90
2023-03-29T10:24:53.957Z,13.50
2023-03-29T10:27:24.167Z,13.50
2023-03-29T10:29:52.005Z,13.60
2023-03-29T10:32:22.871Z,13.70
2023-03-29T10:34:52.116Z,13.60
2023-03-29T10:37:21.295Z,13.50
2023-03-29T10:39:50.327Z,13.40
2023-03-29T10:42:19.403Z,13.50
2023-03-29T10:45:00.330Z,13.50
2023-03-29T10:47:34.399Z,13.70
2023-03-29T10:50:05.692Z,13.50
2023-03-29T10:52:33.885Z,13.40
2023-03-29T10:55:00.911Z,13.30
2023-03-29T10:57:55.468Z,13.20
2023-03-29T11:00:59.974Z,13.20
2023-03-29T11:03:40.577Z,13.20
2023-03-29T11:06:27.137Z,13.20
2023-03-29T11:09:01.699Z,13.20
2023-03-29T11:11:46.538Z,13.10
2023-03-29T11:14:24.955Z,13.00
2023-03-29T11:17:03.620Z,12.60
2023-03-29T11:20:08.380Z,12.50
2023-03-29T11:22:41.478Z,12.70
2023-03-29T11:25:32.206Z,12.90
2023-03-29T11:28:13.981Z,13.00
2023-03-29T11:30:58.933Z,12.90
2023-03-29T11:33:40.990Z,12.70
2023-03-29T11:36:25.813Z,12.30
2023-03-29T11:39:07.753Z,12.20
2023-03-29T11:41:39.985Z,12.30
2023-03-29T11:44:16.623Z,12.60
2023-03-29T11:46:48.317Z,12.90
2023-03-29T11:49:37.074Z,12.90
2023-03-29T11:52:39.768Z,12.90
2023-03-29T11:55:26.146Z,12.80
2023-03-29T11:58:06.289Z,12.50
2023-03-29T12:00:42.579Z,12.70
2023-03-29T12:03:41.395Z,12.90
2023-03-29T12:06:21.460Z,12.90
2023-03-29T12:08:52.708Z,12.90
2023-03-29T12:11:23.013Z,12.80
2023-03-29T12:14:03.825Z,12.80
2023-03-29T12:16:37.244Z,12.80
2023-03-29T12:19:27.226Z,12.80
2023-03-29T12:21:57.245Z,12.70
2023-03-29T12:24:29.744Z,12.50
2023-03-29T12:27:28.391Z,12.40
2023-03-29T12:30:07.562Z,12.30
2023-03-29T12:32:57.766Z,12.00
2023-03-29T12:35:54.536Z,11.90
2023-03-29T12:38:25.170Z,11.90
2023-03-29T12:41:00.310Z,11.80
2023-03-29T12:43:32.633Z,11.80
2023-03-29T12:46:07.015Z,11.80
2023-03-29T12:48:37.262Z,11.80
2023-03-29T12:51:07.870Z,11.90
2023-03-29T12:53:39.045Z,12.00
2023-03-29T12:56:08.759Z,12.00
2023-03-29T12:58:50.632Z,11.90
2023-03-29T13:01:31.739Z,11.80
2023-03-29T13:04:01.554Z,11.70
2023-03-29T13:06:53.742Z,11.60
2023-03-29T13:09:32.344Z,11.80
2023-03-29T13:12:10.943Z,12.00
2023-03-29T13:14:42.945Z,12.00
2023-03-29T13:17:39.106Z,12.00
2023-03-29T13:20:18.502Z,12.10
2023-03-29T13:22:55.936Z,12.00
2023-03-29T13:25:28.827Z,11.90
2023-03-29T13:28:18.408Z,12.00
2023-03-29T13:31:12.874Z,11.90
2023-03-29T13:33:53.859Z,12.00
2023-03-29T13:36:21.279Z,12.10
2023-03-29T13:38:52.312Z,12.20
2023-03-29T13:41:28.970Z,12.30
2023-03-29T13:43:56.982Z,12.30
2023-03-29T13:46:40.284Z,12.40
2023-03-29T13:49:14.680Z,12.50
2023-03-29T13:51:48.266Z,12.40
2023-03-29T13:54:30.715Z,12.30
2023-03-29T13:57:05.152Z,12.10
2023-03-29T13:59:53.868Z,12.10
2023-03-29T14:02:48.098Z,12.10
2023-03-29T14:05:21.728Z,12.20
2023-03-29T14:07:52.691Z,12.20
2023-03-29T14:10:27.604Z,12.20
2023-03-29T14:12:56.893Z,12.10
2023-03-29T14:15:27.757Z,12.00
2023-03-29T14:18:00.327Z,12.00
2023-03-29T14:20:28.920Z,11.90
2023-03-29T14:22:55.930Z,11.90
2023-03-29T14:25:24.058Z,12.00
2023-03-29T14:27:51.031Z,12.00
2023-03-29T14:30:25.753Z,12.10
2023-03-29T14:32:53.118Z,12.10
2023-03-29T14:35:20.970Z,11.90
2023-03-29T14:37:49.076Z,11.60
2023-03-29T14:40:19.765Z,11.60
2023-03-29T14:42:48.741Z,11.60
2023-03-29T14:45:17.744Z,11.60
2023-03-29T14:47:46.162Z,11.50
2023-03-29T14:50:27.591Z,11.40
2023-03-29T14:52:56.601Z,11.30
2023-03-29T14:55:24.902Z,11.30
2023-03-29T14:57:54.511Z,11.40
2023-03-29T15:00:35.004Z,11.40
2023-03-29T15:03:03.159Z,11.40
2023-03-29T15:05:37.218Z,11.30
2023-03-29T15:08:05.508Z,11.20
2023-03-29T15:10:34.165Z,11.20
2023-03-29T15:13:04.382Z,11.20
2023-03-29T15:15:34.798Z,11.20
2023-03-29T15:18:04.260Z,11.20
2023-03-29T15:20:38.460Z,11.20
2023-03-29T15:23:17.104Z,11.10
2023-03-29T15:25:52.201Z,11.20
2023-03-29T15:28:34.725Z,11.20
2023-03-29T15:31:12.074Z,11.20
2023-03-29T15:33:41.095Z,11.20
2023-03-29T15:36:10.577Z,11.20
2023-03-29T15:38:43.875Z,11.10
2023-03-29T15:41:13.578Z,11.10
2023-03-29T15:43:41.470Z,11.10
2023-03-29T15:46:10.971Z,11.10
2023-03-29T15:48:37.879Z,11.10
2023-03-29T15:51:06.705Z,11.10
2023-03-29T15:53:34.108Z,11.10
2023-03-29T15:56:04.144Z,11.10
2023-03-29T15:58:33.671Z,11.00
2023-03-29T16:01:11.486Z,11.00
2023-03-29T16:03:39.676Z,10.90
2023-03-29T16:06:09.768Z,10.90
2023-03-29T16:08:36.677Z,10.90
2023-03-29T16:11:05.204Z,10.80
2023-03-29T16:13:32.111Z,10.80
2023-03-29T16:15:59.098Z,10.80
2023-03-29T16:18:26.280Z,10.70
2023-03-29T16:20:53.212Z,10.60
2023-03-29T16:23:20.102Z,10.60
2023-03-29T16:25:47.007Z,10.60
2023-03-29T16:28:14.084Z,10.50
2023-03-29T16:30:41.165Z,10.40
2023-03-29T16:33:08.680Z,10.40
2023-03-29T16:35:42.516Z,10.40
2023-03-29T16:38:09.516Z,10.40
2023-03-29T16:40:36.970Z,10.30
2023-03-29T16:43:04.689Z,10.30
2023-03-29T16:45:31.994Z,10.30
2023-03-29T16:47:59.209Z,10.30
2023-03-29T16:50:26.454Z,10.20
2023-03-29T16:52:53.637Z,10.20
2023-03-29T16:55:20.623Z,10.20
2023-03-29T16:57:48.966Z,10.20
2023-03-29T17:00:19.581Z,10.10
2023-03-29T17:02:49.720Z,10.10
2023-03-29T17:05:18.648Z,10.00
2023-03-29T17:07:46.922Z,10.00
2023-03-29T17:10:14.429Z,9.90
2023-03-29T17:12:41.612Z,9.90
2023-03-29T17:15:09.400Z,9.80
2023-03-29T17:17:37.885Z,9.70
2023-03-29T17:20:08.705Z,9.60
2023-03-29T17:22:36.516Z,9.60
2023-03-29T17:25:06.438Z,9.70
2023-03-29T17:27:40.887Z,9.60
2023-03-29T17:30:08.869Z,9.60
2023-03-29T17:32:36.667Z,9.50
2023-03-29T17:35:04.052Z,9.50
2023-03-29T17:37:32.808Z,9.40
2023-03-29T17:39:59.968Z,9.40
2023-03-29T17:42:28.162Z,9.30
2023-03-29T17:44:55.978Z,9.30
2023-03-29T17:47:26.006Z,9.30
2023-03-29T17:49:53.641Z,9.30
2023-03-29T17:52:21.096Z,9.30
2023-03-29T17:54:48.038Z,9.30
2023-03-29T17:57:16.352Z,9.30
2023-03-29T17:59:43.318Z,9.30
2023-03-29T18:02:25.211Z,9.30
2023-03-29T18:04:52.641Z,9.30
2023-03-29T18:07:20.053Z,9.30
2023-03-29T18:09:47.720Z,9.20
2023-03-29T18:12:15.302Z,9.20
2023-03-29T18:14:42.846Z,9.20
2023-03-29T18:17:13.397Z,9.20
2023-03-29T18:19:41.061Z,9.20
2023-03-29T18:22:08.869Z,9.20
2023-03-29T18:24:38.030Z,9.20
2023-03-29T18:27:08.341Z,9.20
2023-03-29T18:29:35.868Z,9.20
2023-03-29T18:32:05.292Z,9.20
2023-03-29T18:34:33.823Z,9.20
2023-03-29T18:37:01.421Z,9.30
2023-03-29T18:39:29.767Z,9.20
2023-03-29T18:41:57.480Z,9.20
2023-03-29T18:44:27.902Z,9.20
2023-03-29T18:46:56.932Z,9.20
2023-03-29T18:49:26.373Z,9.10
2023-03-29T18:51:55.879Z,9.10
2023-03-29T18:54:24.226Z,9.20
2023-03-29T18:56:53.837Z,9.10
2023-03-29T18:59:21.894Z,9.00
2023-03-29T19:01:51.176Z,9.10
2023-03-29T19:04:23.953Z,9.00
2023-03-29T19:06:54.268Z,9.00
2023-03-29T19:09:22.161Z,9.00
2023-03-29T19:11:50.387Z,8.90
2023-03-29T19:14:24.883Z,8.90
2023-03-29T19:16:53.055Z,8.90
2023-03-29T19:19:21.883Z,8.90
2023-03-29T19:21:50.132Z,8.90
2023-03-29T19:24:18.144Z,8.80
2023-03-29T19:26:48.495Z,8.90
2023-03-29T19:29:18.949Z,8.90
2023-03-29T19:31:46.941Z,8.90
2023-03-29T19:34:16.149Z,8.90
2023-03-29T19:36:47.724Z,8.80
2023-03-29T19:39:15.525Z,8.80
2023-03-29T19:41:43.694Z,8.80
2023-03-29T19:44:11.519Z,8.80
2023-03-29T19:46:39.020Z,8.80
2023-03-29T19:49:08.537Z,8.90
2023-03-29T19:51:37.671Z,8.80
2023-03-29T19:54:07.252Z,8.80
2023-03-29T19:56:35.507Z,8.80
2023-03-29T19:59:03.058Z,8.80
2023-03-29T20:01:32.501Z,8.80
2023-03-29T20:04:00.121Z,8.70
2023-03-29T20:06:27.259Z,8.70
2023-03-29T20:08:54.909Z,8.70
2023-03-29T20:11:24.197Z,8.70
2023-03-29T20:13:51.230Z,8.70
2023-03-29T20:16:19.477Z,8.70
2023-03-29T20:18:47.041Z,8.70
2023-03-29T20:21:16.861Z,8.70
2023-03-29T20:23:44.605Z,8.70
2023-03-29T20:26:11.806Z,8.70
2023-03-29T20:28:38.874Z,8.70
2023-03-29T20:31:08.141Z,8.70
2023-03-29T20:33:36.212Z,8.70
2023-03-29T20:36:04.038Z,8.60
2023-03-29T20:38:31.388Z,8.60
2023-03-29T20:40:58.338Z,8.60
2023-03-29T20:43:25.342Z,8.50
2023-03-29T20:45:53.942Z,8.50
2023-03-29T20:48:24.840Z,8.60
2023-03-29T20:50:51.937Z,8.50
2023-03-29T20:53:20.721Z,8.50
2023-03-29T20:55:48.100Z,8.50
2023-03-29T20:58:16.008Z,8.40
2023-03-29T21:00:43.716Z,8.40
2023-03-29T21:03:11.189Z,8.40
2023-03-29T21:05:38.944Z,8.40
2023-03-29T21:08:06.199Z,8.40
2023-03-29T21:10:33.411Z,8.40
2023-03-29T21:13:00.772Z,8.40
2023-03-29T21:15:29.499Z,8.40
2023-03-29T21:17:56.538Z,8.40
2023-03-29T21:20:24.262Z,8.40
2023-03-29T21:22:51.715Z,8.40
2023-03-29T21:25:19.143Z,8.40
2023-03-29T21:27:46.529Z,8.40
2023-03-29T21:30:13.771Z,8.30
2023-03-29T21:32:41.235Z,8.30
2023-03-29T21:35:09.060Z,8.20
2023-03-29T21:37:36.122Z,8.20
2023-03-29T21:40:07.264Z,8.20
2023-03-29T21:42:35.051Z,8.20
2023-03-29T21:45:02.095Z,8.10
2023-03-29T21:47:29.634Z,8.10
2023-03-29T21:49:56.526Z,8.10
2023-03-29T21:52:23.645Z,8.10
2023-03-29T21:54:50.630Z,8.10
2023-03-29T21:57:17.711Z,8.10
2023-03-29T21:59:44.766Z,8.10
2023-03-29T22:02:11.786Z,8.10
2023-03-29T22:04:38.780Z,8.10
2023-03-29T22:07:06.528Z,8.10
2023-03-29T22:09:37.750Z,8.10
2023-03-29T22:12:04.806Z,8.10
2023-03-29T22:14:35.280Z,8.10
2023-03-29T22:17:05.846Z,8.10
2023-03-29T22:19:39.231Z,8.10
2023-03-29T22:22:13.582Z,8.10
2023-03-29T22:24:42.037Z,8.10
2023-03-29T22:27:09.660Z,8.00
2023-03-29T22:29:36.525Z,8.00
2023-03-29T22:32:04.033Z,8.00
2023-03-29T22:34:31.494Z,8.00
2023-03-29T22:36:58.368Z,7.90
2023-03-29T22:39:25.303Z,8.00
2023-03-29T22:41:52.325Z,8.00
2023-03-29T22:44:19.244Z,8.00
2023-03-29T22:46:46.824Z,8.00
2023-03-29T22:49:14.812Z,8.00
2023-03-29T22:51:41.877Z,8.00
2023-03-29T22:54:08.864Z,8.00
2023-03-29T22:56:35.780Z,7.90
2023-03-29T22:59:02.669Z,8.00
2023-03-29T23:01:29.628Z,7.90
2023-03-29T23:03:56.735Z,7.90
2023-03-29T23:06:23.781Z,8.00
2023-03-29T23:08:50.958Z,7.90
2023-03-29T23:11:17.844Z,7.90
2023-03-29T23:13:48.778Z,7.90
2023-03-29T23:16:16.736Z,7.80
2023-03-29T23:18:43.675Z,7.80
2023-03-29T23:21:10.579Z,7.70
2023-03-29T23:23:37.553Z,7.70
2023-03-29T23:26:05.062Z,7.60
2023-03-29T23:28:31.996Z,7.60
2023-03-29T23:31:01.154Z,7.50
2023-03-29T23:33:36.304Z,7.50
2023-03-29T23:36:06.133Z,7.40
2023-03-29T23:38:34.655Z,7.30
2023-03-29T23:41:04.241Z,7.30
2023-03-29T23:43:33.349Z,7.20
2023-03-29T23:46:05.237Z,7.20
2023-03-29T23:48:32.816Z,7.10
2023-03-29T23:51:00.154Z,7.10
2023-03-29T23:53:29.133Z,7.00
2023-03-29T23:55:58.357Z,7.00
2023-03-29T23:58:25.530Z,7.00
